sensor_id;sensor_type;location;lat;lon;timestamp;P1;durP1;ratioP1;P2;durP2;ratioP2
16977;SDS011;8605;52.548;4.918;2023-06-14T00:00:30;7.07;;;2.40;;
16977;SDS011;8605;52.548;4.918;2023-06-14T00:05:34;6.05;;;2.70;;
16977;SDS011;8605;52.548;4.918;2023-06-14T00:10:42;5.75;;;2.22;;
16977;SDS011;8605;52.548;4.918;2023-06-14T00:15:45;9.30;;;2.57;;
16977;SDS011;8605;52.548;4.918;2023-06-14T00:20:50;4.20;;;2.50;;
16977;SDS011;8605;52.548;4.918;2023-06-14T00:25:53;5.20;;;2.38;;
16977;SDS011;8605;52.548;4.918;2023-06-14T00:30:56;7.90;;;2.10;;
16977;SDS011;8605;52.548;4.918;2023-06-14T00:36:03;4.38;;;2.25;;
16977;SDS011;8605;52.548;4.918;2023-06-14T00:41:07;8.75;;;2.60;;
16977;SDS011;8605;52.548;4.918;2023-06-14T00:46:10;5.23;;;2.47;;
16977;SDS011;8605;52.548;4.918;2023-06-14T00:51:14;7.80;;;2.40;;
16977;SDS011;8605;52.548;4.918;2023-06-14T00:56:17;3.50;;;1.97;;
16977;SDS011;8605;52.548;4.918;2023-06-14T01:01:24;5.23;;;2.27;;
16977;SDS011;8605;52.548;4.918;2023-06-14T01:06:30;7.20;;;2.40;;
16977;SDS011;8605;52.548;4.918;2023-06-14T01:11:45;5.40;;;2.30;;
16977;SDS011;8605;52.548;4.918;2023-06-14T01:16:51;7.28;;;2.28;;
16977;SDS011;8605;52.548;4.918;2023-06-14T01:21:56;6.17;;;2.40;;
16977;SDS011;8605;52.548;4.918;2023-06-14T01:27:01;9.07;;;2.38;;
16977;SDS011;8605;52.548;4.918;2023-06-14T01:32:05;5.32;;;2.03;;
16977;SDS011;8605;52.548;4.918;2023-06-14T01:37:08;5.55;;;2.63;;
16977;SDS011;8605;52.548;4.918;2023-06-14T01:42:14;7.35;;;2.50;;
16977;SDS011;8605;52.548;4.918;2023-06-14T01:47:18;3.63;;;1.92;;
16977;SDS011;8605;52.548;4.918;2023-06-14T01:52:22;6.38;;;2.20;;
16977;SDS011;8605;52.548;4.918;2023-06-14T01:57:27;3.92;;;2.60;;
16977;SDS011;8605;52.548;4.918;2023-06-14T02:02:31;8.10;;;2.70;;
16977;SDS011;8605;52.548;4.918;2023-06-14T02:07:34;4.28;;;2.08;;
16977;SDS011;8605;52.548;4.918;2023-06-14T02:12:38;6.68;;;2.40;;
16977;SDS011;8605;52.548;4.918;2023-06-14T02:17:43;7.28;;;2.38;;
16977;SDS011;8605;52.548;4.918;2023-06-14T02:22:46;4.28;;;2.10;;
16977;SDS011;8605;52.548;4.918;2023-06-14T02:27:50;8.85;;;2.60;;
16977;SDS011;8605;52.548;4.918;2023-06-14T02:32:53;3.88;;;1.98;;
16977;SDS011;8605;52.548;4.918;2023-06-14T02:37:56;5.68;;;2.78;;
16977;SDS011;8605;52.548;4.918;2023-06-14T02:43:00;3.83;;;2.13;;
16977;SDS011;8605;52.548;4.918;2023-06-14T02:48:03;3.85;;;2.15;;
16977;SDS011;8605;52.548;4.918;2023-06-14T02:53:07;3.40;;;2.17;;
16977;SDS011;8605;52.548;4.918;2023-06-14T02:58:11;9.73;;;2.20;;
16977;SDS011;8605;52.548;4.918;2023-06-14T03:03:15;4.28;;;2.33;;
16977;SDS011;8605;52.548;4.918;2023-06-14T03:08:25;3.57;;;2.03;;
16977;SDS011;8605;52.548;4.918;2023-06-14T03:13:35;3.65;;;2.22;;
16977;SDS011;8605;52.548;4.918;2023-06-14T03:18:40;5.68;;;2.13;;
16977;SDS011;8605;52.548;4.918;2023-06-14T03:23:43;3.17;;;2.03;;
16977;SDS011;8605;52.548;4.918;2023-06-14T03:28:48;3.90;;;2.17;;
16977;SDS011;8605;52.548;4.918;2023-06-14T03:33:53;4.73;;;2.03;;
16977;SDS011;8605;52.548;4.918;2023-06-14T03:38:57;4.85;;;1.85;;
16977;SDS011;8605;52.548;4.918;2023-06-14T03:44:02;5.97;;;2.10;;
16977;SDS011;8605;52.548;4.918;2023-06-14T03:49:05;5.17;;;2.43;;
16977;SDS011;8605;52.548;4.918;2023-06-14T03:54:08;4.30;;;1.90;;
16977;SDS011;8605;52.548;4.918;2023-06-14T03:59:33;8.40;;;2.58;;
16977;SDS011;8605;52.548;4.918;2023-06-14T04:04:37;5.75;;;2.05;;
16977;SDS011;8605;52.548;4.918;2023-06-14T04:09:40;4.55;;;2.33;;
16977;SDS011;8605;52.548;4.918;2023-06-14T04:14:45;5.43;;;2.03;;
16977;SDS011;8605;52.548;4.918;2023-06-14T04:19:48;3.00;;;1.83;;
16977;SDS011;8605;52.548;4.918;2023-06-14T04:24:52;5.43;;;2.47;;
16977;SDS011;8605;52.548;4.918;2023-06-14T04:30:08;3.70;;;2.03;;
16977;SDS011;8605;52.548;4.918;2023-06-14T04:35:21;7.10;;;2.65;;
16977;SDS011;8605;52.548;4.918;2023-06-14T04:40:25;3.00;;;1.70;;
16977;SDS011;8605;52.548;4.918;2023-06-14T04:45:30;3.60;;;2.03;;
16977;SDS011;8605;52.548;4.918;2023-06-14T04:50:33;3.13;;;1.83;;
16977;SDS011;8605;52.548;4.918;2023-06-14T04:55:37;3.53;;;2.08;;
16977;SDS011;8605;52.548;4.918;2023-06-14T05:00:43;4.90;;;1.98;;
16977;SDS011;8605;52.548;4.918;2023-06-14T05:05:46;6.17;;;2.20;;
16977;SDS011;8605;52.548;4.918;2023-06-14T05:10:49;6.38;;;2.50;;
16977;SDS011;8605;52.548;4.918;2023-06-14T05:15:54;2.70;;;2.05;;
16977;SDS011;8605;52.548;4.918;2023-06-14T05:20:57;5.00;;;1.85;;
16977;SDS011;8605;52.548;4.918;2023-06-14T05:26:00;4.38;;;2.00;;
16977;SDS011;8605;52.548;4.918;2023-06-14T05:31:05;4.80;;;2.30;;
16977;SDS011;8605;52.548;4.918;2023-06-14T05:36:08;9.77;;;2.30;;
16977;SDS011;8605;52.548;4.918;2023-06-14T05:41:12;5.87;;;2.20;;
16977;SDS011;8605;52.548;4.918;2023-06-14T05:46:17;3.75;;;2.10;;
16977;SDS011;8605;52.548;4.918;2023-06-14T05:51:23;3.80;;;2.10;;
16977;SDS011;8605;52.548;4.918;2023-06-14T05:56:28;5.60;;;2.40;;
16977;SDS011;8605;52.548;4.918;2023-06-14T06:01:32;11.48;;;3.08;;
16977;SDS011;8605;52.548;4.918;2023-06-14T06:06:38;3.30;;;1.98;;
16977;SDS011;8605;52.548;4.918;2023-06-14T06:11:44;5.13;;;2.28;;
16977;SDS011;8605;52.548;4.918;2023-06-14T06:16:56;5.40;;;2.27;;
16977;SDS011;8605;52.548;4.918;2023-06-14T06:21:59;4.72;;;2.47;;
16977;SDS011;8605;52.548;4.918;2023-06-14T06:27:02;5.37;;;2.70;;
16977;SDS011;8605;52.548;4.918;2023-06-14T06:32:09;8.32;;;2.80;;
16977;SDS011;8605;52.548;4.918;2023-06-14T06:37:13;4.18;;;2.85;;
16977;SDS011;8605;52.548;4.918;2023-06-14T06:42:16;7.22;;;3.10;;
16977;SDS011;8605;52.548;4.918;2023-06-14T06:47:25;10.20;;;3.15;;
16977;SDS011;8605;52.548;4.918;2023-06-14T06:52:28;4.88;;;2.70;;
16977;SDS011;8605;52.548;4.918;2023-06-14T06:57:31;5.55;;;3.03;;
16977;SDS011;8605;52.548;4.918;2023-06-14T07:02:36;12.40;;;3.27;;
16977;SDS011;8605;52.548;4.918;2023-06-14T07:07:39;4.67;;;2.57;;
16977;SDS011;8605;52.548;4.918;2023-06-14T07:12:42;6.18;;;2.92;;
16977;SDS011;8605;52.548;4.918;2023-06-14T07:17:46;3.67;;;2.83;;
16977;SDS011;8605;52.548;4.918;2023-06-14T07:22:50;5.33;;;2.73;;
16977;SDS011;8605;52.548;4.918;2023-06-14T07:27:53;5.30;;;3.05;;
16977;SDS011;8605;52.548;4.918;2023-06-14T07:32:57;3.70;;;2.37;;
16977;SDS011;8605;52.548;4.918;2023-06-14T07:38:01;5.90;;;2.85;;
16977;SDS011;8605;52.548;4.918;2023-06-14T07:43:04;7.82;;;2.70;;
16977;SDS011;8605;52.548;4.918;2023-06-14T07:48:08;10.65;;;3.08;;
16977;SDS011;8605;52.548;4.918;2023-06-14T07:53:12;5.40;;;2.72;;
16977;SDS011;8605;52.548;4.918;2023-06-14T07:58:15;9.33;;;2.87;;
16977;SDS011;8605;52.548;4.918;2023-06-14T08:03:19;5.30;;;2.67;;
16977;SDS011;8605;52.548;4.918;2023-06-14T08:08:24;5.03;;;3.20;;
16977;SDS011;8605;52.548;4.918;2023-06-14T08:13:27;7.70;;;2.85;;
16977;SDS011;8605;52.548;4.918;2023-06-14T08:18:31;7.38;;;2.67;;
16977;SDS011;8605;52.548;4.918;2023-06-14T08:23:34;6.15;;;2.90;;
16977;SDS011;8605;52.548;4.918;2023-06-14T08:28:38;4.60;;;2.97;;
16977;SDS011;8605;52.548;4.918;2023-06-14T08:33:42;4.43;;;3.05;;
16977;SDS011;8605;52.548;4.918;2023-06-14T08:38:45;5.65;;;2.85;;
16977;SDS011;8605;52.548;4.918;2023-06-14T08:43:48;4.68;;;2.30;;
16977;SDS011;8605;52.548;4.918;2023-06-14T08:48:53;5.97;;;2.60;;
16977;SDS011;8605;52.548;4.918;2023-06-14T08:53:58;4.47;;;2.33;;
16977;SDS011;8605;52.548;4.918;2023-06-14T08:59:09;7.45;;;2.20;;
16977;SDS011;8605;52.548;4.918;2023-06-14T09:04:14;4.33;;;2.43;;
16977;SDS011;8605;52.548;4.918;2023-06-14T09:09:21;5.40;;;2.60;;
16977;SDS011;8605;52.548;4.918;2023-06-14T09:14:28;3.90;;;2.13;;
16977;SDS011;8605;52.548;4.918;2023-06-14T09:19:35;5.38;;;2.58;;
16977;SDS011;8605;52.548;4.918;2023-06-14T09:24:38;3.05;;;1.80;;
16977;SDS011;8605;52.548;4.918;2023-06-14T09:29:41;4.93;;;2.00;;
16977;SDS011;8605;52.548;4.918;2023-06-14T09:34:46;7.00;;;1.77;;
16977;SDS011;8605;52.548;4.918;2023-06-14T09:39:50;4.68;;;1.75;;
16977;SDS011;8605;52.548;4.918;2023-06-14T09:44:54;3.17;;;1.90;;
16977;SDS011;8605;52.548;4.918;2023-06-14T09:49:59;2.08;;;1.80;;
16977;SDS011;8605;52.548;4.918;2023-06-14T09:55:05;6.57;;;2.15;;
16977;SDS011;8605;52.548;4.918;2023-06-14T10:00:15;2.47;;;1.92;;
16977;SDS011;8605;52.548;4.918;2023-06-14T10:05:21;2.40;;;1.80;;
16977;SDS011;8605;52.548;4.918;2023-06-14T10:10:25;4.80;;;1.80;;
16977;SDS011;8605;52.548;4.918;2023-06-14T10:15:29;1.63;;;1.53;;
16977;SDS011;8605;52.548;4.918;2023-06-14T10:20:37;4.50;;;1.80;;
16977;SDS011;8605;52.548;4.918;2023-06-14T10:25:44;2.47;;;2.03;;
16977;SDS011;8605;52.548;4.918;2023-06-14T10:31:06;3.47;;;1.75;;
16977;SDS011;8605;52.548;4.918;2023-06-14T10:36:24;2.08;;;1.50;;
16977;SDS011;8605;52.548;4.918;2023-06-14T10:41:34;2.67;;;2.08;;
16977;SDS011;8605;52.548;4.918;2023-06-14T10:46:40;3.30;;;1.37;;
16977;SDS011;8605;52.548;4.918;2023-06-14T10:51:52;3.38;;;1.70;;
16977;SDS011;8605;52.548;4.918;2023-06-14T10:56:56;2.93;;;1.70;;
16977;SDS011;8605;52.548;4.918;2023-06-14T11:02:06;3.97;;;1.77;;
16977;SDS011;8605;52.548;4.918;2023-06-14T11:07:29;3.83;;;1.60;;
16977;SDS011;8605;52.548;4.918;2023-06-14T11:12:41;7.75;;;2.20;;
16977;SDS011;8605;52.548;4.918;2023-06-14T11:17:50;2.45;;;1.75;;
16977;SDS011;8605;52.548;4.918;2023-06-14T11:22:56;3.22;;;1.83;;
16977;SDS011;8605;52.548;4.918;2023-06-14T11:28:01;2.92;;;1.90;;
16977;SDS011;8605;52.548;4.918;2023-06-14T11:33:04;4.77;;;1.87;;
16977;SDS011;8605;52.548;4.918;2023-06-14T11:38:09;3.50;;;2.20;;
16977;SDS011;8605;52.548;4.918;2023-06-14T11:43:13;4.43;;;2.05;;
16977;SDS011;8605;52.548;4.918;2023-06-14T11:48:19;4.72;;;2.17;;
16977;SDS011;8605;52.548;4.918;2023-06-14T11:53:23;3.72;;;1.77;;
16977;SDS011;8605;52.548;4.918;2023-06-14T11:58:29;3.90;;;1.90;;
16977;SDS011;8605;52.548;4.918;2023-06-14T12:03:33;2.43;;;1.40;;
16977;SDS011;8605;52.548;4.918;2023-06-14T12:08:38;3.17;;;1.73;;
16977;SDS011;8605;52.548;4.918;2023-06-14T12:13:42;1.88;;;1.55;;
16977;SDS011;8605;52.548;4.918;2023-06-14T12:18:45;4.90;;;1.90;;
16977;SDS011;8605;52.548;4.918;2023-06-14T12:23:50;5.07;;;1.77;;
16977;SDS011;8605;52.548;4.918;2023-06-14T12:28:53;2.57;;;1.80;;
16977;SDS011;8605;52.548;4.918;2023-06-14T12:33:59;2.35;;;1.30;;
16977;SDS011;8605;52.548;4.918;2023-06-14T12:39:04;3.85;;;1.58;;
16977;SDS011;8605;52.548;4.918;2023-06-14T12:44:07;5.10;;;1.50;;
16977;SDS011;8605;52.548;4.918;2023-06-14T12:49:11;6.53;;;1.90;;
16977;SDS011;8605;52.548;4.918;2023-06-14T12:54:19;4.70;;;1.40;;
16977;SDS011;8605;52.548;4.918;2023-06-14T12:59:40;2.40;;;1.38;;
16977;SDS011;8605;52.548;4.918;2023-06-14T13:04:44;3.10;;;1.20;;
16977;SDS011;8605;52.548;4.918;2023-06-14T13:09:48;4.70;;;1.47;;
16977;SDS011;8605;52.548;4.918;2023-06-14T13:14:51;4.30;;;1.60;;
16977;SDS011;8605;52.548;4.918;2023-06-14T13:19:54;2.67;;;1.23;;
16977;SDS011;8605;52.548;4.918;2023-06-14T13:24:59;2.20;;;1.42;;
16977;SDS011;8605;52.548;4.918;2023-06-14T13:30:02;11.20;;;1.92;;
16977;SDS011;8605;52.548;4.918;2023-06-14T13:35:07;2.03;;;1.50;;
16977;SDS011;8605;52.548;4.918;2023-06-14T13:40:12;2.92;;;1.40;;
16977;SDS011;8605;52.548;4.918;2023-06-14T13:45:16;3.60;;;1.55;;
16977;SDS011;8605;52.548;4.918;2023-06-14T13:50:18;4.33;;;1.63;;
16977;SDS011;8605;52.548;4.918;2023-06-14T13:55:23;6.20;;;1.38;;
16977;SDS011;8605;52.548;4.918;2023-06-14T14:00:26;3.10;;;1.55;;
16977;SDS011;8605;52.548;4.918;2023-06-14T14:05:29;3.00;;;1.73;;
16977;SDS011;8605;52.548;4.918;2023-06-14T14:10:34;1.67;;;1.13;;
16977;SDS011;8605;52.548;4.918;2023-06-14T14:15:37;3.63;;;1.83;;
16977;SDS011;8605;52.548;4.918;2023-06-14T14:20:40;2.72;;;1.40;;
16977;SDS011;8605;52.548;4.918;2023-06-14T14:25:48;5.28;;;1.80;;
16977;SDS011;8605;52.548;4.918;2023-06-14T14:30:55;4.07;;;2.00;;
16977;SDS011;8605;52.548;4.918;2023-06-14T14:35:58;3.20;;;1.77;;
16977;SDS011;8605;52.548;4.918;2023-06-14T14:41:06;2.58;;;1.60;;
16977;SDS011;8605;52.548;4.918;2023-06-14T14:46:09;2.63;;;1.25;;
16977;SDS011;8605;52.548;4.918;2023-06-14T14:51:12;2.17;;;1.67;;
16977;SDS011;8605;52.548;4.918;2023-06-14T14:56:17;4.60;;;1.70;;
16977;SDS011;8605;52.548;4.918;2023-06-14T15:01:20;3.50;;;1.40;;
16977;SDS011;8605;52.548;4.918;2023-06-14T15:06:23;4.45;;;1.60;;
16977;SDS011;8605;52.548;4.918;2023-06-14T15:11:27;6.37;;;1.77;;
16977;SDS011;8605;52.548;4.918;2023-06-14T15:16:30;4.28;;;1.67;;
16977;SDS011;8605;52.548;4.918;2023-06-14T15:21:33;5.73;;;2.00;;
16977;SDS011;8605;52.548;4.918;2023-06-14T15:26:38;3.20;;;1.95;;
16977;SDS011;8605;52.548;4.918;2023-06-14T15:31:41;3.57;;;1.70;;
16977;SDS011;8605;52.548;4.918;2023-06-14T15:36:44;3.13;;;1.67;;
16977;SDS011;8605;52.548;4.918;2023-06-14T15:41:49;2.90;;;1.97;;
16977;SDS011;8605;52.548;4.918;2023-06-14T15:46:52;2.05;;;1.65;;
16977;SDS011;8605;52.548;4.918;2023-06-14T15:51:55;3.57;;;1.97;;
16977;SDS011;8605;52.548;4.918;2023-06-14T15:57:00;3.67;;;1.73;;
16977;SDS011;8605;52.548;4.918;2023-06-14T16:02:03;6.75;;;1.90;;
16977;SDS011;8605;52.548;4.918;2023-06-14T16:07:06;6.45;;;2.63;;
16977;SDS011;8605;52.548;4.918;2023-06-14T16:12:11;3.67;;;1.58;;
16977;SDS011;8605;52.548;4.918;2023-06-14T16:17:14;3.80;;;1.85;;
16977;SDS011;8605;52.548;4.918;2023-06-14T16:22:17;4.00;;;1.77;;
16977;SDS011;8605;52.548;4.918;2023-06-14T16:27:21;1.70;;;1.40;;
16977;SDS011;8605;52.548;4.918;2023-06-14T16:32:25;3.22;;;1.73;;
16977;SDS011;8605;52.548;4.918;2023-06-14T16:37:28;2.70;;;1.63;;
16977;SDS011;8605;52.548;4.918;2023-06-14T16:42:32;1.80;;;1.67;;
16977;SDS011;8605;52.548;4.918;2023-06-14T16:47:35;3.45;;;1.70;;
16977;SDS011;8605;52.548;4.918;2023-06-14T16:52:39;2.30;;;1.63;;
16977;SDS011;8605;52.548;4.918;2023-06-14T16:57:43;3.00;;;1.90;;
16977;SDS011;8605;52.548;4.918;2023-06-14T17:02:46;2.50;;;1.90;;
16977;SDS011;8605;52.548;4.918;2023-06-14T17:07:49;3.10;;;1.67;;
16977;SDS011;8605;52.548;4.918;2023-06-14T17:12:53;2.97;;;1.47;;
16977;SDS011;8605;52.548;4.918;2023-06-14T17:17:56;3.77;;;1.90;;
16977;SDS011;8605;52.548;4.918;2023-06-14T17:22:59;6.63;;;1.58;;
16977;SDS011;8605;52.548;4.918;2023-06-14T17:28:04;1.83;;;1.55;;
16977;SDS011;8605;52.548;4.918;2023-06-14T17:33:08;3.70;;;1.70;;
16977;SDS011;8605;52.548;4.918;2023-06-14T17:38:15;4.63;;;1.87;;
16977;SDS011;8605;52.548;4.918;2023-06-14T17:43:20;4.45;;;1.85;;
16977;SDS011;8605;52.548;4.918;2023-06-14T17:48:28;4.43;;;1.75;;
16977;SDS011;8605;52.548;4.918;2023-06-14T17:53:34;2.95;;;1.52;;
16977;SDS011;8605;52.548;4.918;2023-06-14T17:58:38;2.97;;;1.60;;
16977;SDS011;8605;52.548;4.918;2023-06-14T18:03:41;8.05;;;1.95;;
16977;SDS011;8605;52.548;4.918;2023-06-14T18:08:46;3.22;;;1.35;;
16977;SDS011;8605;52.548;4.918;2023-06-14T18:13:51;5.38;;;1.65;;
16977;SDS011;8605;52.548;4.918;2023-06-14T18:18:55;2.92;;;1.73;;
16977;SDS011;8605;52.548;4.918;2023-06-14T18:23:58;2.53;;;1.60;;
16977;SDS011;8605;52.548;4.918;2023-06-14T18:29:02;3.37;;;1.77;;
16977;SDS011;8605;52.548;4.918;2023-06-14T18:34:10;5.40;;;1.90;;
16977;SDS011;8605;52.548;4.918;2023-06-14T18:39:13;2.00;;;1.47;;
16977;SDS011;8605;52.548;4.918;2023-06-14T18:44:18;2.70;;;1.50;;
16977;SDS011;8605;52.548;4.918;2023-06-14T18:49:21;5.53;;;1.97;;
16977;SDS011;8605;52.548;4.918;2023-06-14T18:54:24;4.90;;;1.38;;
16977;SDS011;8605;52.548;4.918;2023-06-14T18:59:29;3.38;;;1.58;;
16977;SDS011;8605;52.548;4.918;2023-06-14T19:04:32;3.40;;;1.50;;
16977;SDS011;8605;52.548;4.918;2023-06-14T19:09:35;2.90;;;1.40;;
16977;SDS011;8605;52.548;4.918;2023-06-14T19:14:39;4.25;;;1.60;;
16977;SDS011;8605;52.548;4.918;2023-06-14T19:19:42;3.25;;;1.63;;
16977;SDS011;8605;52.548;4.918;2023-06-14T19:24:47;5.50;;;1.87;;
16977;SDS011;8605;52.548;4.918;2023-06-14T19:29:51;6.25;;;1.65;;
16977;SDS011;8605;52.548;4.918;2023-06-14T19:34:54;2.60;;;1.60;;
16977;SDS011;8605;52.548;4.918;2023-06-14T19:40:00;2.20;;;1.50;;
16977;SDS011;8605;52.548;4.918;2023-06-14T19:45:05;2.10;;;1.63;;
16977;SDS011;8605;52.548;4.918;2023-06-14T19:50:09;3.42;;;1.67;;
16977;SDS011;8605;52.548;4.918;2023-06-14T19:55:13;2.57;;;2.00;;
16977;SDS011;8605;52.548;4.918;2023-06-14T20:00:18;4.10;;;2.17;;
16977;SDS011;8605;52.548;4.918;2023-06-14T20:05:21;4.25;;;2.38;;
16977;SDS011;8605;52.548;4.918;2023-06-14T20:10:25;7.03;;;3.03;;
16977;SDS011;8605;52.548;4.918;2023-06-14T20:15:29;7.90;;;2.90;;
16977;SDS011;8605;52.548;4.918;2023-06-14T20:20:32;6.32;;;2.92;;
16977;SDS011;8605;52.548;4.918;2023-06-14T20:25:36;10.98;;;2.90;;
16977;SDS011;8605;52.548;4.918;2023-06-14T20:30:40;5.40;;;2.40;;
16977;SDS011;8605;52.548;4.918;2023-06-14T20:35:43;5.85;;;2.42;;
16977;SDS011;8605;52.548;4.918;2023-06-14T20:40:47;4.90;;;2.50;;
16977;SDS011;8605;52.548;4.918;2023-06-14T20:45:52;5.13;;;2.30;;
16977;SDS011;8605;52.548;4.918;2023-06-14T20:50:56;5.97;;;3.00;;
16977;SDS011;8605;52.548;4.918;2023-06-14T20:56:11;6.45;;;3.05;;
16977;SDS011;8605;52.548;4.918;2023-06-14T21:01:20;5.13;;;2.72;;
16977;SDS011;8605;52.548;4.918;2023-06-14T21:06:27;8.53;;;3.10;;
16977;SDS011;8605;52.548;4.918;2023-06-14T21:11:31;3.87;;;2.57;;
16977;SDS011;8605;52.548;4.918;2023-06-14T21:16:35;6.93;;;2.50;;
16977;SDS011;8605;52.548;4.918;2023-06-14T21:21:38;6.57;;;2.30;;
16977;SDS011;8605;52.548;4.918;2023-06-14T21:26:44;5.68;;;3.00;;
16977;SDS011;8605;52.548;4.918;2023-06-14T21:31:48;6.85;;;3.28;;
16977;SDS011;8605;52.548;4.918;2023-06-14T21:36:52;6.28;;;3.60;;
16977;SDS011;8605;52.548;4.918;2023-06-14T21:41:56;9.48;;;3.45;;
16977;SDS011;8605;52.548;4.918;2023-06-14T21:47:03;6.27;;;2.70;;
16977;SDS011;8605;52.548;4.918;2023-06-14T21:52:11;4.10;;;2.50;;
16977;SDS011;8605;52.548;4.918;2023-06-14T21:57:18;6.13;;;3.03;;
16977;SDS011;8605;52.548;4.918;2023-06-14T22:02:23;5.72;;;2.45;;
16977;SDS011;8605;52.548;4.918;2023-06-14T22:07:26;5.53;;;2.72;;
16977;SDS011;8605;52.548;4.918;2023-06-14T22:12:32;4.38;;;2.40;;
16977;SDS011;8605;52.548;4.918;2023-06-14T22:17:40;5.30;;;2.83;;
16977;SDS011;8605;52.548;4.918;2023-06-14T22:22:44;4.93;;;2.80;;
16977;SDS011;8605;52.548;4.918;2023-06-14T22:27:49;4.30;;;2.72;;
16977;SDS011;8605;52.548;4.918;2023-06-14T22:32:55;6.40;;;2.20;;
16977;SDS011;8605;52.548;4.918;2023-06-14T22:37:58;5.90;;;2.60;;
16977;SDS011;8605;52.548;4.918;2023-06-14T22:43:02;5.20;;;2.35;;
16977;SDS011;8605;52.548;4.918;2023-06-14T22:48:08;4.05;;;2.60;;
16977;SDS011;8605;52.548;4.918;2023-06-14T22:53:11;4.20;;;2.20;;
16977;SDS011;8605;52.548;4.918;2023-06-14T22:58:16;11.80;;;2.65;;
16977;SDS011;8605;52.548;4.918;2023-06-14T23:03:21;5.10;;;2.40;;
16977;SDS011;8605;52.548;4.918;2023-06-14T23:08:24;5.25;;;2.75;;
16977;SDS011;8605;52.548;4.918;2023-06-14T23:13:27;5.13;;;2.63;;
16977;SDS011;8605;52.548;4.918;2023-06-14T23:18:31;5.87;;;2.60;;
16977;SDS011;8605;52.548;4.918;2023-06-14T23:23:34;4.50;;;2.28;;
16977;SDS011;8605;52.548;4.918;2023-06-14T23:28:37;6.13;;;2.40;;
16977;SDS011;8605;52.548;4.918;2023-06-14T23:33:42;5.37;;;2.77;;
16977;SDS011;8605;52.548;4.918;2023-06-14T23:38:45;4.37;;;2.10;;
16977;SDS011;8605;52.548;4.918;2023-06-14T23:43:50;5.60;;;2.42;;
16977;SDS011;8605;52.548;4.918;2023-06-14T23:48:54;4.25;;;2.22;;
16977;SDS011;8605;52.548;4.918;2023-06-14T23:53:57;2.83;;;2.20;;
16977;SDS011;8605;52.548;4.918;2023-06-14T23:59:03;4.93;;;2.42;;
